createdAt,value
2019-05-02T00:02:07.265Z,2.80
2019-05-02T00:04:36.065Z,2.97
2019-05-02T00:07:06.592Z,2.90
2019-05-02T00:09:36.457Z,2.73
2019-05-02T00:12:08.033Z,2.50
2019-05-02T00:14:37.783Z,2.90
2019-05-02T00:17:07.024Z,2.63
2019-05-02T00:19:35.891Z,2.83
2019-05-02T00:22:05.388Z,2.20
2019-05-02T00:24:39.246Z,2.87
2019-05-02T00:27:05.225Z,2.87
2019-05-02T00:29:33.968Z,2.70
2019-05-02T00:32:02.695Z,2.93
2019-05-02T00:34:31.418Z,3.03
2019-05-02T00:37:00.081Z,3.10
2019-05-02T00:39:28.903Z,2.73
2019-05-02T00:41:57.689Z,3.40
2019-05-02T00:44:26.366Z,3.47
2019-05-02T00:46:56.664Z,3.37
2019-05-02T00:49:25.474Z,3.10
2019-05-02T00:51:56.681Z,3.83
2019-05-02T00:54:25.424Z,3.40
2019-05-02T00:56:54.144Z,3.40
2019-05-02T00:59:22.815Z,3.60
2019-05-02T01:02:09.223Z,3.93
2019-05-02T01:04:39.669Z,4.33
2019-05-02T01:07:09.150Z,4.27
2019-05-02T01:09:42.121Z,4.23
2019-05-02T01:12:09.882Z,4.30
2019-05-02T01:14:38.668Z,4.00
2019-05-02T01:17:07.435Z,4.80
2019-05-02T01:19:36.157Z,4.23
2019-05-02T01:22:05.273Z,4.43
2019-05-02T01:24:39.221Z,4.40
2019-05-02T01:27:21.492Z,4.03
2019-05-02T01:29:54.847Z,4.27
2019-05-02T01:32:29.668Z,4.77
2019-05-02T01:35:02.927Z,4.87
2019-05-02T01:37:50.973Z,5.23
2019-05-02T01:40:19.633Z,6.03
2019-05-02T01:42:49.026Z,5.70
2019-05-02T01:45:18.792Z,5.67
2019-05-02T01:47:47.503Z,7.00
2019-05-02T01:50:16.305Z,7.00
2019-05-02T01:52:45.187Z,6.77
2019-05-02T01:55:20.745Z,7.43
2019-05-02T01:57:47.307Z,6.40
2019-05-02T02:00:16.447Z,8.07
2019-05-02T02:02:45.162Z,7.87
2019-05-02T02:05:14.126Z,7.63
2019-05-02T02:07:42.918Z,7.60
2019-05-02T02:10:14.974Z,7.83
2019-05-02T02:12:56.489Z,8.13
2019-05-02T02:15:12.939Z,6.90
2019-05-02T02:17:41.612Z,7.97
2019-05-02T02:20:17.740Z,8.20
2019-05-02T02:22:53.802Z,7.07
2019-05-02T02:25:37.805Z,8.07
2019-05-02T02:28:06.594Z,7.87
2019-05-02T02:30:35.270Z,7.60
2019-05-02T02:33:07.560Z,8.47
2019-05-02T02:35:35.087Z,7.90
2019-05-02T02:38:03.853Z,8.17
2019-05-02T02:40:35.372Z,8.13
2019-05-02T02:43:12.671Z,7.97
2019-05-02T02:45:57.476Z,7.93
2019-05-02T02:48:21.927Z,7.73
2019-05-02T02:50:50.823Z,8.93
2019-05-02T02:53:31.593Z,7.87
2019-05-02T02:56:03.902Z,7.87
2019-05-02T02:58:44.235Z,7.40
2019-05-02T03:01:03.946Z,7.37
2019-05-02T03:03:35.180Z,7.93
2019-05-02T03:06:05.788Z,7.67
2019-05-02T03:08:44.553Z,8.47
2019-05-02T03:11:04.538Z,8.17
2019-05-02T03:13:50.973Z,8.37
2019-05-02T03:16:12.756Z,8.07
2019-05-02T03:18:43.373Z,8.03
2019-05-02T03:21:13.360Z,7.70
2019-05-02T03:23:45.854Z,7.80
2019-05-02T03:26:15.760Z,7.57
2019-05-02T03:28:45.201Z,6.50
2019-05-02T03:31:24.041Z,6.93
2019-05-02T03:33:54.998Z,7.53
2019-05-02T03:36:29.265Z,6.97
2019-05-02T03:38:46.049Z,7.67
2019-05-02T03:41:20.561Z,7.10
2019-05-02T03:43:45.379Z,6.83
2019-05-02T03:46:20.626Z,6.87
2019-05-02T03:48:46.012Z,6.37
2019-05-02T03:51:21.420Z,6.33
2019-05-02T03:53:45.565Z,6.80
2019-05-02T03:56:14.494Z,6.70
2019-05-02T03:58:48.404Z,6.87
2019-05-02T04:01:13.844Z,6.23
2019-05-02T04:03:43.760Z,7.07
2019-05-02T04:06:21.193Z,6.87
2019-05-02T04:08:45.399Z,7.03
2019-05-02T04:11:19.860Z,6.43
2019-05-02T04:13:49.171Z,6.30
2019-05-02T04:16:18.994Z,7.50
2019-05-02T04:18:55.738Z,6.80
2019-05-02T04:21:24.509Z,6.53
2019-05-02T04:23:49.572Z,6.73
2019-05-02T04:26:19.464Z,6.87
2019-05-02T04:28:51.820Z,6.77
2019-05-02T04:31:24.687Z,6.43
2019-05-02T04:33:49.072Z,8.30
2019-05-02T04:36:18.289Z,6.47
2019-05-02T04:38:51.630Z,7.07
2019-05-02T04:41:27.974Z,6.73
2019-05-02T04:43:57.703Z,6.80
2019-05-02T04:46:27.070Z,6.63
2019-05-02T04:48:52.712Z,6.83
2019-05-02T04:51:20.546Z,6.70
2019-05-02T04:53:50.157Z,6.90
2019-05-02T04:56:19.169Z,7.30
2019-05-02T04:58:49.338Z,7.40
2019-05-02T05:01:21.374Z,7.47
2019-05-02T05:04:01.024Z,7.27
2019-05-02T05:06:19.645Z,6.57
2019-05-02T05:08:48.575Z,7.73
2019-05-02T05:11:20.811Z,6.10
2019-05-02T05:13:48.037Z,6.37
2019-05-02T05:16:18.619Z,6.57
2019-05-02T05:18:49.362Z,6.13
2019-05-02T05:21:18.162Z,6.50
2019-05-02T05:24:01.360Z,7.03
2019-05-02T05:26:40.962Z,6.77
2019-05-02T05:29:08.125Z,6.83
2019-05-02T05:31:38.244Z,7.10
2019-05-02T05:34:08.039Z,6.50
2019-05-02T05:36:37.893Z,7.03
2019-05-02T05:39:08.530Z,6.50
2019-05-02T05:41:37.912Z,6.40
2019-05-02T05:44:07.825Z,6.97
2019-05-02T05:46:38.725Z,10.17
2019-05-02T05:49:10.478Z,8.57
2019-05-02T05:51:37.841Z,7.43
2019-05-02T05:54:07.782Z,7.17
2019-05-02T05:56:42.059Z,7.33
2019-05-02T05:59:07.784Z,6.37
2019-05-02T06:01:38.433Z,6.07
2019-05-02T06:04:08.008Z,8.20
2019-05-02T06:06:37.771Z,7.30
2019-05-02T06:09:08.471Z,5.90
2019-05-02T06:11:37.188Z,6.30
2019-05-02T06:14:06.040Z,5.60
2019-05-02T06:16:35.428Z,5.47
2019-05-02T06:19:04.555Z,5.87
2019-05-02T06:21:33.385Z,6.70
2019-05-02T06:24:02.035Z,6.27
2019-05-02T06:26:30.705Z,5.30
2019-05-02T06:28:59.449Z,5.23
2019-05-02T06:31:28.344Z,6.00
2019-05-02T06:34:02.115Z,5.37
2019-05-02T06:36:32.002Z,5.40
2019-05-02T06:38:58.599Z,5.63
2019-05-02T06:41:27.301Z,5.90
2019-05-02T06:43:55.988Z,6.63
2019-05-02T06:46:27.503Z,5.20
2019-05-02T06:48:55.241Z,5.33
2019-05-02T06:51:23.934Z,5.60
2019-05-02T06:53:52.594Z,5.63
2019-05-02T06:56:21.295Z,5.00
2019-05-02T06:58:50.104Z,4.63
2019-05-02T07:01:21.431Z,6.23
2019-05-02T07:03:49.450Z,5.17
2019-05-02T07:06:18.602Z,5.20
2019-05-02T07:08:47.385Z,5.27
2019-05-02T07:11:16.150Z,4.83
2019-05-02T07:13:44.860Z,4.97
2019-05-02T07:16:38.394Z,5.27
2019-05-02T07:19:11.378Z,5.37
2019-05-02T07:21:40.199Z,5.17
2019-05-02T07:24:08.896Z,5.53
2019-05-02T07:26:40.880Z,5.27
2019-05-02T07:29:09.977Z,5.03
2019-05-02T07:31:43.000Z,5.00
2019-05-02T07:34:12.947Z,5.33
2019-05-02T07:36:39.578Z,5.40
2019-05-02T07:39:10.770Z,5.57
2019-05-02T07:41:39.670Z,4.80
2019-05-02T07:44:08.452Z,5.07
2019-05-02T07:46:51.137Z,5.07
2019-05-02T07:49:09.600Z,4.20
2019-05-02T07:51:38.534Z,4.60
2019-05-02T07:54:07.382Z,5.10
2019-05-02T07:56:36.101Z,5.03
2019-05-02T07:59:04.895Z,4.67
2019-05-02T08:01:33.891Z,4.67
2019-05-02T08:04:04.787Z,4.80
2019-05-02T08:06:35.417Z,4.57
2019-05-02T08:09:07.161Z,4.30
2019-05-02T08:11:37.172Z,4.57
2019-05-02T08:14:07.055Z,4.30
2019-05-02T08:16:35.784Z,4.50
2019-05-02T08:19:05.524Z,4.47
2019-05-02T08:21:35.304Z,4.77
2019-05-02T08:24:04.418Z,4.70
2019-05-02T08:26:47.000Z,4.57
2019-05-02T08:29:16.216Z,5.07
2019-05-02T08:31:44.917Z,4.58
2019-05-02T08:34:15.023Z,4.40
2019-05-02T08:36:44.228Z,4.55
2019-05-02T08:39:14.508Z,5.07
2019-05-02T08:41:43.345Z,4.72
2019-05-02T08:44:16.742Z,4.47
2019-05-02T08:46:46.236Z,4.12
2019-05-02T08:49:14.153Z,4.10
2019-05-02T08:51:43.811Z,4.17
2019-05-02T08:54:12.508Z,3.72
2019-05-02T08:56:41.223Z,7.47
2019-05-02T08:59:09.932Z,4.05
2019-05-02T09:01:39.171Z,4.55
2019-05-02T09:04:07.880Z,4.30
2019-05-02T09:06:36.624Z,4.37
2019-05-02T09:09:07.750Z,4.17
2019-05-02T09:11:37.215Z,4.60
2019-05-02T09:14:06.043Z,3.95
2019-05-02T09:16:34.748Z,4.95
2019-05-02T09:19:03.523Z,4.25
2019-05-02T09:21:36.008Z,4.45
2019-05-02T09:24:02.769Z,3.87
2019-05-02T09:26:36.075Z,3.83
2019-05-02T09:29:05.414Z,4.33
2019-05-02T09:31:32.322Z,4.37
2019-05-02T09:34:02.743Z,4.42
2019-05-02T09:36:32.278Z,4.65
2019-05-02T09:39:02.661Z,4.03
2019-05-02T09:41:35.959Z,3.77
2019-05-02T09:44:02.867Z,3.62
2019-05-02T09:46:32.444Z,3.92
2019-05-02T09:49:09.428Z,3.40
2019-05-02T09:51:32.585Z,4.28
2019-05-02T09:54:02.615Z,4.33
2019-05-02T09:56:32.509Z,4.50
2019-05-02T09:59:10.053Z,4.08
2019-05-02T10:01:39.056Z,4.15
2019-05-02T10:04:08.068Z,3.70
2019-05-02T10:06:36.906Z,3.95
2019-05-02T10:09:07.215Z,4.40
2019-05-02T10:11:35.998Z,3.97
2019-05-02T10:14:05.219Z,4.40
2019-05-02T10:16:34.051Z,3.87
2019-05-02T10:19:09.524Z,3.33
2019-05-02T10:21:33.276Z,3.72
2019-05-02T10:24:03.849Z,3.92
2019-05-02T10:26:33.018Z,3.95
2019-05-02T10:29:02.222Z,3.77
2019-05-02T10:31:33.478Z,3.50
2019-05-02T10:34:02.377Z,3.62
2019-05-02T10:36:32.540Z,4.62
2019-05-02T10:39:01.871Z,4.90
2019-05-02T10:41:31.701Z,4.78
2019-05-02T10:44:02.239Z,4.60
2019-05-02T10:46:37.723Z,5.00
2019-05-02T10:49:07.988Z,4.80
2019-05-02T10:51:43.446Z,4.47
2019-05-02T10:54:07.473Z,4.00
2019-05-02T10:56:36.229Z,3.80
2019-05-02T10:59:05.215Z,4.12
2019-05-02T11:01:36.168Z,3.72
2019-05-02T11:04:06.598Z,3.65
2019-05-02T11:06:37.118Z,3.83
2019-05-02T11:09:09.137Z,3.80
2019-05-02T11:11:38.946Z,3.52
2019-05-02T11:14:18.223Z,3.73
2019-05-02T11:16:48.520Z,3.90
2019-05-02T11:19:19.025Z,3.90
2019-05-02T11:21:56.338Z,4.07
2019-05-02T11:24:18.159Z,3.93
2019-05-02T11:26:46.848Z,4.40
2019-05-02T11:29:15.577Z,4.83
2019-05-02T11:31:44.334Z,4.10
2019-05-02T11:34:13.091Z,3.70
2019-05-02T11:36:42.151Z,3.97
2019-05-02T11:39:20.608Z,4.10
2019-05-02T11:41:42.218Z,3.62
2019-05-02T11:44:12.087Z,4.03
2019-05-02T11:46:46.765Z,4.10
2019-05-02T11:49:12.496Z,4.25
2019-05-02T11:51:42.178Z,4.17
2019-05-02T11:54:12.939Z,4.15
2019-05-02T11:56:49.028Z,3.95
2019-05-02T11:59:14.692Z,4.53
2019-05-02T12:01:56.962Z,4.42
2019-05-02T12:04:16.837Z,4.25
2019-05-02T12:06:49.942Z,4.67
2019-05-02T12:09:16.438Z,4.03
2019-05-02T12:11:47.370Z,4.00
2019-05-02T12:14:15.653Z,4.20
2019-05-02T12:16:46.676Z,3.92
2019-05-02T12:19:15.360Z,4.12
2019-05-02T12:21:46.986Z,3.52
2019-05-02T12:24:15.707Z,4.03
2019-05-02T12:26:46.471Z,4.03
2019-05-02T12:29:15.089Z,4.45
2019-05-02T12:31:47.246Z,4.67
2019-05-02T12:34:14.272Z,4.97
2019-05-02T12:36:43.138Z,3.62
2019-05-02T12:39:12.608Z,2.90
2019-05-02T12:41:42.469Z,3.42
2019-05-02T12:44:11.807Z,3.55
2019-05-02T12:46:42.146Z,3.75
2019-05-02T12:49:22.623Z,4.08
2019-05-02T12:51:42.909Z,3.37
2019-05-02T12:54:12.392Z,3.15
2019-05-02T12:56:41.947Z,3.15
2019-05-02T12:59:11.860Z,3.87
2019-05-02T13:01:42.197Z,3.10
2019-05-02T13:04:12.764Z,3.42
2019-05-02T13:06:42.159Z,4.00
2019-05-02T13:09:12.914Z,2.85
2019-05-02T13:11:58.935Z,2.95
2019-05-02T13:14:29.152Z,2.67
2019-05-02T13:17:01.542Z,3.10
2019-05-02T13:19:38.045Z,3.98
2019-05-02T13:22:03.451Z,3.60
2019-05-02T13:24:33.761Z,3.40
2019-05-02T13:27:04.393Z,3.40
2019-05-02T13:29:33.250Z,3.30
2019-05-02T13:32:21.794Z,3.10
2019-05-02T13:34:54.118Z,3.25
2019-05-02T13:37:24.205Z,3.30
2019-05-02T13:40:11.978Z,3.37
2019-05-02T13:42:41.892Z,3.67
2019-05-02T13:45:16.127Z,3.50
2019-05-02T13:47:45.066Z,3.77
2019-05-02T13:50:14.286Z,3.35
2019-05-02T13:52:44.970Z,2.83
2019-05-02T13:55:15.265Z,3.75
2019-05-02T13:57:46.968Z,3.15
2019-05-02T14:00:17.238Z,3.60
2019-05-02T14:02:46.767Z,3.05
2019-05-02T14:05:16.572Z,3.10
2019-05-02T14:07:57.292Z,2.92
2019-05-02T14:10:33.699Z,3.30
2019-05-02T14:13:04.534Z,3.80
2019-05-02T14:15:34.790Z,2.90
2019-05-02T14:18:03.517Z,3.00
2019-05-02T14:20:33.085Z,3.00
2019-05-02T14:23:02.407Z,3.20
2019-05-02T14:25:32.167Z,2.98
2019-05-02T14:28:02.960Z,3.17
2019-05-02T14:30:39.551Z,2.98
2019-05-02T14:33:03.613Z,2.80
2019-05-02T14:35:36.233Z,2.85
2019-05-02T14:38:08.524Z,3.12
2019-05-02T14:40:52.064Z,3.20
2019-05-02T14:43:44.594Z,3.42
2019-05-02T14:46:09.030Z,3.10
2019-05-02T14:48:45.189Z,3.00
2019-05-02T14:51:16.797Z,3.40
2019-05-02T14:53:43.199Z,3.40
2019-05-02T14:56:29.717Z,3.10
2019-05-02T14:58:58.473Z,3.80
2019-05-02T15:01:27.273Z,3.10
2019-05-02T15:03:58.369Z,3.47
2019-05-02T15:06:26.590Z,2.90
2019-05-02T15:08:55.370Z,3.45
2019-05-02T15:11:30.717Z,3.62
2019-05-02T15:13:54.560Z,3.47
2019-05-02T15:16:33.323Z,3.47
2019-05-02T15:18:57.080Z,3.17
2019-05-02T15:21:25.634Z,2.62
2019-05-02T15:23:57.927Z,3.30
2019-05-02T15:26:26.470Z,3.27
2019-05-02T15:28:55.350Z,2.92
2019-05-02T15:31:33.941Z,2.75
2019-05-02T15:34:12.595Z,2.70
2019-05-02T15:36:44.109Z,2.70
2019-05-02T15:41:44.997Z,3.00
2019-05-02T15:44:13.076Z,3.00
2019-05-02T15:46:42.502Z,4.63
2019-05-02T15:49:12.295Z,2.90
2019-05-02T15:51:45.051Z,2.90
2019-05-02T15:54:12.496Z,3.00
2019-05-02T15:56:59.982Z,2.80
2019-05-02T15:59:37.695Z,2.80
2019-05-02T16:02:06.179Z,3.17
2019-05-02T16:04:36.439Z,3.50
2019-05-02T16:07:08.428Z,3.33
2019-05-02T16:09:35.877Z,2.90
2019-05-02T16:12:05.755Z,3.30
2019-05-02T16:14:36.048Z,3.57
2019-05-02T16:17:05.384Z,3.27
2019-05-02T16:19:35.645Z,3.27
2019-05-02T16:22:11.941Z,2.87
2019-05-02T16:24:43.954Z,3.23
2019-05-02T16:27:11.710Z,2.90
2019-05-02T16:29:41.776Z,3.17
2019-05-02T16:32:14.974Z,3.03
2019-05-02T16:34:54.166Z,3.90
2019-05-02T16:37:22.528Z,3.50
2019-05-02T16:39:51.492Z,3.30
2019-05-02T16:42:20.173Z,3.00
2019-05-02T16:44:48.843Z,3.30
2019-05-02T16:47:17.523Z,3.40
2019-05-02T16:49:47.946Z,3.23
2019-05-02T16:52:16.816Z,3.60
2019-05-02T16:54:45.555Z,3.40
2019-05-02T16:57:20.517Z,3.43
2019-05-02T16:59:44.740Z,3.47
2019-05-02T17:02:13.615Z,3.47
2019-05-02T17:04:42.805Z,3.50
2019-05-02T17:07:13.085Z,3.70
2019-05-02T17:09:43.388Z,4.00
2019-05-02T17:12:15.225Z,4.00
2019-05-02T17:14:53.486Z,4.00
2019-05-02T17:17:14.427Z,4.30
2019-05-02T17:19:43.212Z,3.70
2019-05-02T17:22:12.194Z,3.90
2019-05-02T17:24:41.866Z,3.87
2019-05-02T17:27:12.949Z,3.73
2019-05-02T17:29:42.863Z,4.03
2019-05-02T17:32:11.802Z,4.40
2019-05-02T17:34:42.187Z,4.33
2019-05-02T17:37:12.136Z,3.90
2019-05-02T17:39:44.376Z,4.40
2019-05-02T17:42:12.415Z,4.30
2019-05-02T17:44:41.570Z,4.20
2019-05-02T17:47:11.753Z,4.90
2019-05-02T17:49:42.222Z,4.90
2019-05-02T17:52:19.102Z,3.97
2019-05-02T17:54:43.715Z,4.73
2019-05-02T17:57:12.506Z,4.37
2019-05-02T17:59:42.226Z,5.13
2019-05-02T18:02:14.294Z,5.87
2019-05-02T18:04:42.021Z,5.10
2019-05-02T18:07:11.684Z,4.40
2019-05-02T18:09:41.830Z,4.57
2019-05-02T18:12:12.646Z,5.13
2019-05-02T18:14:42.169Z,4.57
2019-05-02T18:17:12.721Z,5.00
2019-05-02T18:19:42.546Z,4.80
2019-05-02T18:22:23.355Z,4.30
2019-05-02T18:24:46.120Z,5.20
2019-05-02T18:27:12.862Z,4.27
2019-05-02T18:29:45.414Z,5.37
2019-05-02T18:32:12.846Z,4.80
2019-05-02T18:34:41.954Z,5.40
2019-05-02T18:37:10.847Z,4.70
2019-05-02T18:39:45.238Z,5.20
2019-05-02T18:42:11.829Z,4.90
2019-05-02T18:44:42.040Z,5.00
2019-05-02T18:47:12.616Z,5.37
2019-05-02T18:49:41.923Z,5.50
2019-05-02T18:52:11.693Z,4.97
2019-05-02T18:54:43.946Z,5.50
2019-05-02T18:57:11.942Z,5.93
2019-05-02T18:59:42.571Z,6.23
2019-05-02T19:02:11.545Z,6.20
2019-05-02T19:04:42.248Z,5.93
2019-05-02T19:07:14.293Z,6.43
2019-05-02T19:09:50.818Z,5.83
2019-05-02T19:12:20.899Z,5.80
2019-05-02T19:14:42.069Z,6.23
2019-05-02T19:17:12.258Z,5.83
2019-05-02T19:19:41.912Z,6.57
2019-05-02T19:22:13.130Z,5.43
2019-05-02T19:24:41.948Z,6.37
2019-05-02T19:27:12.841Z,6.13
2019-05-02T19:29:42.461Z,6.17
2019-05-02T19:32:12.219Z,5.93
2019-05-02T19:34:41.746Z,6.37
2019-05-02T19:37:12.181Z,6.57
2019-05-02T19:39:44.837Z,6.50
2019-05-02T19:42:17.068Z,5.33
2019-05-02T19:44:44.254Z,5.77
2019-05-02T19:47:17.470Z,5.30
2019-05-02T19:49:47.170Z,5.20
2019-05-02T19:52:16.004Z,4.70
2019-05-02T19:54:44.671Z,4.70
2019-05-02T19:57:17.205Z,4.10
2019-05-02T19:59:43.938Z,4.23
2019-05-02T20:02:12.610Z,4.20
2019-05-02T20:04:42.620Z,4.67
2019-05-02T20:07:12.403Z,4.47
2019-05-02T20:09:43.598Z,4.27
2019-05-02T20:12:15.453Z,4.10
2019-05-02T20:14:43.603Z,4.03
2019-05-02T20:17:20.214Z,4.27
2019-05-02T20:19:47.515Z,3.97
2019-05-02T20:22:16.385Z,4.07
2019-05-02T20:24:55.342Z,3.77
2019-05-02T20:27:23.480Z,5.17
2019-05-02T20:29:52.310Z,4.97
2019-05-02T20:32:22.086Z,5.07
2019-05-02T20:34:51.078Z,4.80
2019-05-02T20:37:21.927Z,5.10
2019-05-02T20:39:50.149Z,5.27
2019-05-02T20:42:18.831Z,5.83
2019-05-02T20:44:47.510Z,4.90
2019-05-02T20:47:19.119Z,5.43
2019-05-02T20:49:47.846Z,4.47
2019-05-02T20:52:16.486Z,4.67
2019-05-02T20:54:45.148Z,5.77
2019-05-02T20:57:13.966Z,5.63
2019-05-02T20:59:42.653Z,6.90
2019-05-02T21:02:12.207Z,6.03
2019-05-02T21:04:42.496Z,6.43
2019-05-02T21:07:25.290Z,5.57
2019-05-02T21:10:02.021Z,5.43
2019-05-02T21:12:30.710Z,5.63
2019-05-02T21:14:59.371Z,5.50
2019-05-02T21:17:28.050Z,5.27
2019-05-02T21:19:56.718Z,5.80
2019-05-02T21:22:28.316Z,5.77
2019-05-02T21:24:56.979Z,5.20
2019-05-02T21:27:25.641Z,4.80
2019-05-02T21:29:54.316Z,5.07
2019-05-02T21:32:23.074Z,4.23
2019-05-02T21:34:52.077Z,5.10
2019-05-02T21:37:22.600Z,4.90
2019-05-02T21:39:52.095Z,4.63
2019-05-02T21:42:22.638Z,4.67
2019-05-02T21:44:52.019Z,4.73
2019-05-02T21:47:22.500Z,5.10
2019-05-02T21:49:52.986Z,4.60
2019-05-02T21:52:23.264Z,5.10
2019-05-02T21:55:01.758Z,5.07
2019-05-02T21:57:32.059Z,4.57
2019-05-02T22:00:02.329Z,4.37
2019-05-02T22:02:30.754Z,4.93
2019-05-02T22:04:59.435Z,4.60
2019-05-02T22:07:28.120Z,4.90
2019-05-02T22:09:56.791Z,5.07
2019-05-02T22:12:25.565Z,3.97
2019-05-02T22:14:54.259Z,4.20
2019-05-02T22:17:22.923Z,4.33
2019-05-02T22:19:52.467Z,4.17
2019-05-02T22:22:22.816Z,4.13
2019-05-02T22:24:52.863Z,4.33
2019-05-02T22:27:21.860Z,4.30
2019-05-02T22:29:52.368Z,4.30
2019-05-02T22:32:22.538Z,3.87
2019-05-02T22:34:53.481Z,3.53
2019-05-02T22:37:23.233Z,4.53
2019-05-02T22:39:53.480Z,4.20
2019-05-02T22:42:22.177Z,4.40
2019-05-02T22:44:50.881Z,3.90
2019-05-02T22:47:19.639Z,3.60
2019-05-02T22:49:48.322Z,3.70
2019-05-02T22:52:17.001Z,3.80
2019-05-02T22:54:45.679Z,3.63
2019-05-02T22:57:14.508Z,3.60
2019-05-02T22:59:43.252Z,4.00
2019-05-02T23:02:12.758Z,3.77
2019-05-02T23:04:41.807Z,4.40
2019-05-02T23:07:12.538Z,4.23
2019-05-02T23:09:43.390Z,4.20
2019-05-02T23:12:13.195Z,3.90
2019-05-02T23:14:41.966Z,4.40
2019-05-02T23:17:12.528Z,4.03
2019-05-02T23:19:42.341Z,4.13
2019-05-02T23:22:12.747Z,4.43
2019-05-02T23:24:55.107Z,4.23
2019-05-02T23:27:28.435Z,4.40
2019-05-02T23:29:57.072Z,4.27
2019-05-02T23:32:25.768Z,3.80
2019-05-02T23:34:54.442Z,4.43
2019-05-02T23:37:23.097Z,4.63
2019-05-02T23:39:52.282Z,3.97
2019-05-02T23:42:21.891Z,4.20
2019-05-02T23:44:51.934Z,3.93
2019-05-02T23:47:22.474Z,4.13
2019-05-02T23:49:52.049Z,3.87
2019-05-02T23:52:22.420Z,4.07
2019-05-02T23:54:52.443Z,3.97
2019-05-02T23:57:22.962Z,4.07
2019-05-02T23:59:51.891Z,4.03
